West Van Lear, Kentucky
Current Conditions -  °F | °C
As of 2:35 PM on Thursday 27 Nov 2014 (Local Time) from KSJS Reporting Station
Overcast Overcast  
Wind Chill: 26°   Ceiling: 2300
Heat Index: 32°   Visibility: 10mi
Dew Point: 24°   Wind: 6mph
Humidity: 74%   Direction: 290°WNW
Pressure: 30.24"   Gusts: NA
Location:  37.79°N, 82.77°W
Report Text: KSJS 271935Z AUTO 29005KT 10SM OVC023 00/M04 A3024 RMK AO2 T00001042
Loading
Personal Weather Stations






























Interactive Weather Map New forecast layout! Learn more

10-Day Weather Forecast

Advertisements
Track Severe Weather on mobile